Terminal Aerodrome Forecast
Issued by NWS

Home | Current Version | Previous Version | Text Only | Print | Product List | Glossary On
Versions: 1 2 3 4 5 6 7 8 9 10 11 12 13 14 15
000
FTUS46 KMTR 031700
TAFSNS
TAF
KSNS 031722Z 0318/0418 12003KT P6SM SKC
     FM032000 28006KT P6SM SKC
     FM032200 29012KT P6SM SKC
     FM040400 VRB03KT P6SM FEW009
     FM041000 10009KT P6SM FEW009=

USA.gov is the U.S. government's official web portal to all federal, state and local government web resources and services.